Anacortes, WA

7:10 AM PDT on August 22, 2014 (GMT -0700)
Anacortes Airport | Change Station
CLOSE
Current Station
Personal Weather Station
Location: Anacortes, WA
Elevation: 241 ft
Nearby Weather Stations

Elev 241 ft 48.50 °N, 122.66 °W | Updated 2 seconds ago

Overcast
Overcast
51.7 °F
Feels Like 51.7 °F
N
0.0
Wind Variable Wind from SE
Gusts 1.0 mph

Today
High -- | Low -- °F
--% Chance of Precip.
Yesterday
High -- | Low -- °F
Precip. -- in
6:13 AM 8:11 PM
Waning Crescent, 8% visible
Pressure 30.05 in
Visibility 0.8 miles
Clouds Overcast 100 ft
Dew Point 51 °F
Humidity 99%
Rainfall 0.00 in
Snow Depth Not available.
UV 0 out of 12
Pollen 2.80 out of 12
PM2.5 Good
Flu Activity Not available.
METAR KBVS 221355Z AUTO 21004KT 3/4SM OVC001 12/12 A3005 RMK A01 P000

More Conditions Fewer Conditions

Pressure 30.05 in
Visibility 0.8 miles
Clouds Overcast 100 ft
Dew Point 51 °F
Humidity 99%
Rainfall 0.00 in
Snow Depth Not available.
UV 0 out of 12
Pollen 2.80 out of 12
PM2.5 Good
Flu Activity Not available.
METAR KBVS 221355Z AUTO 21004KT 3/4SM OVC001 12/12 A3005 RMK A01 P000

More Conditions Fewer Conditions

10-Day Weather Forecast

Almanac

Astronomy

Aug. 22, 2014 Rise Set
Actual Time 6:13 AM PDT 8:11 PM PDT
Civil Twilight 5:40 AM PDT 8:45 PM PDT
Nautical Twilight 4:58 AM PDT 9:26 PM PDT
Astronomical Twilight 4:12 AM PDT 10:12 PM PDT
Moon 3:35 AM PDT 6:27 PM PDT
Length of Visible Light 15h 04m
Length of Day
13h 57m
Tomorrow will be 3m 18s shorter.
Waning Crescent, 8% of the Moon is Illuminated
Today
Waning Crescent
Aug 25
New
Sep 2
First Quarter
Sep 8
Full
Sep 15
Last Quarter

Today's Extremes

State Highs State Lows

Community

WunderPhotos

Upload Photos

1,746,175 photos uploaded!

Nearby

Air Quality

  Air Quality AQ Index Pollutant
Yesterday Good
PM2.5
Current Good
PM2.5
Friday Good
OZONE
Friday Good
PM2.5
Saturday Good
OZONE
Saturday Good
PM2.5
Sunday Good
OZONE
Sunday Good
PM2.5

Snow Depth

Station Depth Elevation
Mf Nooksack 0 in 4980 ft
Dungeness 0 in 4100 ft
Mount Crag 0 in 4050 ft
Alpine Meadows 0 in 3500 ft
Lyman Lake 0 in 5900 ft

Earthquake Activity

City Distance Mag. Time & Date
No recent earthquake activity has been reported nearby.
Minimum magnitude displayed is 2.5.

Coastal Water Temperatures

Place Temperature
Port Townsend, WA 53.1 °F
Friday Harbor, WA 54.0 °F
Port Angeles, WA 53.1 °F

Nearby Weather Stations